sensor_id;sensor_type;location;lat;lon;timestamp;pressure;altitude;pressure_sealevel;temperature;humidity
17521;BME280;8878;-33.370;-70.552;2023-03-20T00:02:28;92061.22;;;28.81;36.34
17521;BME280;8878;-33.370;-70.552;2023-03-20T00:04:57;92056.84;;;28.66;36.23
17521;BME280;8878;-33.370;-70.552;2023-03-20T00:07:27;92064.97;;;28.63;36.85
17521;BME280;8878;-33.370;-70.552;2023-03-20T00:09:56;92069.06;;;28.39;36.79
17521;BME280;8878;-33.370;-70.552;2023-03-20T00:12:25;92072.66;;;28.54;37.00
17521;BME280;8878;-33.370;-70.552;2023-03-20T00:14:55;92068.75;;;28.48;37.33
17521;BME280;8878;-33.370;-70.552;2023-03-20T00:17:26;92075.88;;;28.15;37.98
17521;BME280;8878;-33.370;-70.552;2023-03-20T00:19:56;92074.00;;;28.23;37.29
17521;BME280;8878;-33.370;-70.552;2023-03-20T00:22:27;92080.88;;;28.13;37.54
17521;BME280;8878;-33.370;-70.552;2023-03-20T00:24:58;92075.50;;;28.17;38.00
17521;BME280;8878;-33.370;-70.552;2023-03-20T00:27:28;92080.78;;;27.99;38.01
17521;BME280;8878;-33.370;-70.552;2023-03-20T00:29:57;92085.47;;;27.61;38.30
17521;BME280;8878;-33.370;-70.552;2023-03-20T00:32:28;92088.41;;;27.49;38.78
17521;BME280;8878;-33.370;-70.552;2023-03-20T00:34:58;92083.72;;;27.46;38.87
17521;BME280;8878;-33.370;-70.552;2023-03-20T00:37:27;92091.88;;;27.13;39.01
17521;BME280;8878;-33.370;-70.552;2023-03-20T00:39:56;92089.19;;;27.16;39.34
17521;BME280;8878;-33.370;-70.552;2023-03-20T00:42:27;92093.19;;;26.93;39.36
17521;BME280;8878;-33.370;-70.552;2023-03-20T00:44:56;92096.38;;;27.02;39.73
17521;BME280;8878;-33.370;-70.552;2023-03-20T00:47:28;92094.47;;;27.39;38.73
17521;BME280;8878;-33.370;-70.552;2023-03-20T00:49:58;92092.22;;;27.45;38.99
17521;BME280;8878;-33.370;-70.552;2023-03-20T00:52:28;92094.41;;;27.32;38.59
17521;BME280;8878;-33.370;-70.552;2023-03-20T00:54:58;92096.84;;;27.44;38.82
17521;BME280;8878;-33.370;-70.552;2023-03-20T00:57:29;92097.84;;;27.62;38.25
17521;BME280;8878;-33.370;-70.552;2023-03-20T01:00:05;92104.44;;;27.61;38.40
17521;BME280;8878;-33.370;-70.552;2023-03-20T01:02:37;92101.72;;;27.28;38.95
17521;BME280;8878;-33.370;-70.552;2023-03-20T01:05:07;92102.59;;;27.39;38.97
17521;BME280;8878;-33.370;-70.552;2023-03-20T01:07:36;92112.13;;;27.26;38.99
17521;BME280;8878;-33.370;-70.552;2023-03-20T01:10:06;92111.22;;;27.48;38.94
17521;BME280;8878;-33.370;-70.552;2023-03-20T01:12:38;92117.34;;;27.42;39.26
17521;BME280;8878;-33.370;-70.552;2023-03-20T01:15:16;92101.91;;;27.46;38.88
17521;BME280;8878;-33.370;-70.552;2023-03-20T01:17:48;92108.13;;;27.50;39.37
17521;BME280;8878;-33.370;-70.552;2023-03-20T01:20:21;92101.03;;;27.35;39.51
17521;BME280;8878;-33.370;-70.552;2023-03-20T01:22:51;92104.34;;;27.21;40.28
17521;BME280;8878;-33.370;-70.552;2023-03-20T01:25:22;92103.88;;;27.15;41.04
17521;BME280;8878;-33.370;-70.552;2023-03-20T01:27:52;92102.66;;;27.09;40.42
17521;BME280;8878;-33.370;-70.552;2023-03-20T01:30:25;92099.75;;;26.95;41.01
17521;BME280;8878;-33.370;-70.552;2023-03-20T01:32:58;92099.97;;;26.83;42.20
17521;BME280;8878;-33.370;-70.552;2023-03-20T01:35:28;92104.16;;;26.77;41.78
17521;BME280;8878;-33.370;-70.552;2023-03-20T01:37:57;92088.97;;;26.69;41.32
17521;BME280;8878;-33.370;-70.552;2023-03-20T01:40:32;92099.31;;;26.63;41.74
17521;BME280;8878;-33.370;-70.552;2023-03-20T01:43:08;92090.50;;;26.40;42.81
17521;BME280;8878;-33.370;-70.552;2023-03-20T01:45:46;92091.31;;;26.44;42.86
17521;BME280;8878;-33.370;-70.552;2023-03-20T01:48:20;92090.63;;;26.50;42.47
17521;BME280;8878;-33.370;-70.552;2023-03-20T01:50:51;92086.41;;;26.53;41.71
17521;BME280;8878;-33.370;-70.552;2023-03-20T01:53:23;92081.38;;;26.51;42.28
17521;BME280;8878;-33.370;-70.552;2023-03-20T01:55:56;92083.06;;;26.33;43.18
17521;BME280;8878;-33.370;-70.552;2023-03-20T01:58:30;92079.38;;;26.22;42.98
17521;BME280;8878;-33.370;-70.552;2023-03-20T02:01:02;92077.09;;;26.24;43.26
17521;BME280;8878;-33.370;-70.552;2023-03-20T02:03:33;92083.81;;;26.07;43.91
17521;BME280;8878;-33.370;-70.552;2023-03-20T02:06:04;92083.25;;;25.98;43.85
17521;BME280;8878;-33.370;-70.552;2023-03-20T02:08:38;92081.28;;;25.95;43.78
17521;BME280;8878;-33.370;-70.552;2023-03-20T02:11:10;92075.16;;;25.98;43.11
17521;BME280;8878;-33.370;-70.552;2023-03-20T02:13:40;92076.34;;;26.01;43.38
17521;BME280;8878;-33.370;-70.552;2023-03-20T02:16:11;92068.53;;;25.96;43.68
17521;BME280;8878;-33.370;-70.552;2023-03-20T02:18:45;92083.06;;;25.88;43.65
17521;BME280;8878;-33.370;-70.552;2023-03-20T02:25:01;92067.06;;;25.76;44.16
17521;BME280;8878;-33.370;-70.552;2023-03-20T02:27:49;92070.34;;;25.65;43.57
17521;BME280;8878;-33.370;-70.552;2023-03-20T02:30:45;92075.91;;;25.53;44.00
17521;BME280;8878;-33.370;-70.552;2023-03-20T02:33:52;92079.97;;;25.44;43.73
17521;BME280;8878;-33.370;-70.552;2023-03-20T02:36:47;92080.34;;;25.42;44.76
17521;BME280;8878;-33.370;-70.552;2023-03-20T02:39:38;92074.41;;;25.56;44.63
17521;BME280;8878;-33.370;-70.552;2023-03-20T02:42:18;92075.84;;;25.50;44.74
17521;BME280;8878;-33.370;-70.552;2023-03-20T02:45:00;92075.47;;;25.51;44.99
17521;BME280;8878;-33.370;-70.552;2023-03-20T02:47:36;92080.41;;;25.46;45.12
17521;BME280;8878;-33.370;-70.552;2023-03-20T02:50:14;92071.94;;;25.47;45.17
17521;BME280;8878;-33.370;-70.552;2023-03-20T02:52:50;92067.97;;;25.41;44.71
17521;BME280;8878;-33.370;-70.552;2023-03-20T02:55:31;92080.94;;;25.32;44.57
17521;BME280;8878;-33.370;-70.552;2023-03-20T02:58:11;92072.25;;;25.23;44.09
17521;BME280;8878;-33.370;-70.552;2023-03-20T03:00:48;92075.53;;;25.32;44.80
17521;BME280;8878;-33.370;-70.552;2023-03-20T03:03:21;92067.13;;;25.37;45.08
17521;BME280;8878;-33.370;-70.552;2023-03-20T03:05:56;92069.41;;;25.35;44.22
17521;BME280;8878;-33.370;-70.552;2023-03-20T03:08:29;92067.84;;;25.34;44.21
17521;BME280;8878;-33.370;-70.552;2023-03-20T03:11:05;92067.19;;;24.99;44.38
17521;BME280;8878;-33.370;-70.552;2023-03-20T03:13:38;92060.56;;;24.96;45.12
17521;BME280;8878;-33.370;-70.552;2023-03-20T03:16:11;92064.47;;;25.18;45.49
17521;BME280;8878;-33.370;-70.552;2023-03-20T03:18:43;92063.88;;;25.28;45.31
17521;BME280;8878;-33.370;-70.552;2023-03-20T03:21:16;92067.16;;;25.18;45.60
17521;BME280;8878;-33.370;-70.552;2023-03-20T03:23:47;92064.75;;;25.13;45.06
17521;BME280;8878;-33.370;-70.552;2023-03-20T03:26:23;92065.63;;;24.98;45.07
17521;BME280;8878;-33.370;-70.552;2023-03-20T03:28:56;92068.03;;;25.03;45.47
17521;BME280;8878;-33.370;-70.552;2023-03-20T03:31:28;92073.28;;;24.95;46.70
17521;BME280;8878;-33.370;-70.552;2023-03-20T03:33:59;92074.84;;;24.96;46.37
17521;BME280;8878;-33.370;-70.552;2023-03-20T03:36:36;92069.59;;;25.04;46.48
17521;BME280;8878;-33.370;-70.552;2023-03-20T03:39:15;92064.91;;;25.01;46.43
17521;BME280;8878;-33.370;-70.552;2023-03-20T03:41:49;92067.31;;;25.06;46.18
17521;BME280;8878;-33.370;-70.552;2023-03-20T03:44:25;92064.00;;;24.93;46.83
17521;BME280;8878;-33.370;-70.552;2023-03-20T03:46:59;92074.19;;;24.84;47.61
17521;BME280;8878;-33.370;-70.552;2023-03-20T03:49:34;92073.84;;;24.85;47.59
17521;BME280;8878;-33.370;-70.552;2023-03-20T03:52:08;92061.25;;;24.74;47.34
17521;BME280;8878;-33.370;-70.552;2023-03-20T03:54:41;92057.78;;;24.73;47.14
17521;BME280;8878;-33.370;-70.552;2023-03-20T03:57:14;92061.09;;;24.67;47.23
17521;BME280;8878;-33.370;-70.552;2023-03-20T03:59:48;92059.34;;;24.55;47.84
17521;BME280;8878;-33.370;-70.552;2023-03-20T04:02:20;92056.19;;;24.53;47.83
17521;BME280;8878;-33.370;-70.552;2023-03-20T04:04:51;92063.78;;;24.47;48.45
17521;BME280;8878;-33.370;-70.552;2023-03-20T04:07:25;92061.44;;;24.46;48.37
17521;BME280;8878;-33.370;-70.552;2023-03-20T04:09:55;92056.00;;;24.42;47.89
17521;BME280;8878;-33.370;-70.552;2023-03-20T04:12:34;92058.34;;;24.44;48.25
17521;BME280;8878;-33.370;-70.552;2023-03-20T04:15:04;92054.13;;;24.46;47.85
17521;BME280;8878;-33.370;-70.552;2023-03-20T04:17:34;92057.06;;;24.57;47.52
17521;BME280;8878;-33.370;-70.552;2023-03-20T04:20:04;92052.09;;;24.59;47.40
17521;BME280;8878;-33.370;-70.552;2023-03-20T04:22:34;92049.53;;;24.47;47.81
17521;BME280;8878;-33.370;-70.552;2023-03-20T04:25:04;92043.84;;;24.52;48.22
17521;BME280;8878;-33.370;-70.552;2023-03-20T04:27:35;92043.69;;;24.45;48.17
17521;BME280;8878;-33.370;-70.552;2023-03-20T04:30:06;92033.06;;;24.33;48.42
17521;BME280;8878;-33.370;-70.552;2023-03-20T04:32:35;92040.06;;;24.37;48.41
17521;BME280;8878;-33.370;-70.552;2023-03-20T04:35:05;92044.91;;;24.47;46.59
17521;BME280;8878;-33.370;-70.552;2023-03-20T04:37:35;92040.81;;;24.53;47.09
17521;BME280;8878;-33.370;-70.552;2023-03-20T04:40:05;92040.09;;;24.56;47.56
17521;BME280;8878;-33.370;-70.552;2023-03-20T04:42:36;92033.63;;;24.42;47.99
17521;BME280;8878;-33.370;-70.552;2023-03-20T04:45:06;92028.09;;;24.35;47.22
17521;BME280;8878;-33.370;-70.552;2023-03-20T04:47:36;92021.91;;;24.34;47.22
17521;BME280;8878;-33.370;-70.552;2023-03-20T04:50:06;92021.97;;;24.38;47.92
17521;BME280;8878;-33.370;-70.552;2023-03-20T04:52:36;92025.31;;;24.31;48.44
17521;BME280;8878;-33.370;-70.552;2023-03-20T04:55:06;92020.19;;;24.26;48.56
17521;BME280;8878;-33.370;-70.552;2023-03-20T04:57:37;92020.47;;;24.21;49.28
17521;BME280;8878;-33.370;-70.552;2023-03-20T05:00:07;92019.09;;;24.11;49.17
17521;BME280;8878;-33.370;-70.552;2023-03-20T05:02:37;92022.50;;;24.08;48.89
17521;BME280;8878;-33.370;-70.552;2023-03-20T05:05:06;92018.84;;;24.01;48.81
17521;BME280;8878;-33.370;-70.552;2023-03-20T05:07:36;92021.69;;;23.73;48.91
17521;BME280;8878;-33.370;-70.552;2023-03-20T05:10:07;92022.59;;;23.96;48.61
17521;BME280;8878;-33.370;-70.552;2023-03-20T05:12:38;92013.69;;;24.11;48.15
17521;BME280;8878;-33.370;-70.552;2023-03-20T05:15:09;92010.56;;;24.09;48.91
17521;BME280;8878;-33.370;-70.552;2023-03-20T05:17:38;92018.38;;;24.14;48.33
17521;BME280;8878;-33.370;-70.552;2023-03-20T05:20:08;92010.16;;;24.07;48.74
17521;BME280;8878;-33.370;-70.552;2023-03-20T05:22:38;92016.81;;;24.13;48.60
17521;BME280;8878;-33.370;-70.552;2023-03-20T05:25:08;92009.56;;;23.98;48.33
17521;BME280;8878;-33.370;-70.552;2023-03-20T05:27:39;92010.41;;;24.02;48.29
17521;BME280;8878;-33.370;-70.552;2023-03-20T05:30:11;92009.22;;;24.00;48.63
17521;BME280;8878;-33.370;-70.552;2023-03-20T05:32:40;92006.69;;;23.91;49.04
17521;BME280;8878;-33.370;-70.552;2023-03-20T05:35:10;92010.09;;;23.88;49.55
17521;BME280;8878;-33.370;-70.552;2023-03-20T05:37:39;92013.22;;;23.90;49.05
17521;BME280;8878;-33.370;-70.552;2023-03-20T05:40:13;92005.00;;;24.02;48.75
17521;BME280;8878;-33.370;-70.552;2023-03-20T05:42:45;92005.09;;;24.06;48.06
17521;BME280;8878;-33.370;-70.552;2023-03-20T05:45:14;92000.97;;;23.93;49.19
17521;BME280;8878;-33.370;-70.552;2023-03-20T05:47:44;91994.78;;;23.92;49.13
17521;BME280;8878;-33.370;-70.552;2023-03-20T05:50:14;92000.19;;;23.92;49.02
17521;BME280;8878;-33.370;-70.552;2023-03-20T05:52:47;91999.31;;;23.88;48.72
17521;BME280;8878;-33.370;-70.552;2023-03-20T05:55:16;91998.47;;;23.84;48.90
17521;BME280;8878;-33.370;-70.552;2023-03-20T05:57:47;91991.94;;;23.85;49.27
17521;BME280;8878;-33.370;-70.552;2023-03-20T06:00:18;91996.03;;;23.79;48.86
17521;BME280;8878;-33.370;-70.552;2023-03-20T06:02:47;91980.81;;;23.87;48.93
17521;BME280;8878;-33.370;-70.552;2023-03-20T06:05:17;91983.06;;;23.85;49.36
17521;BME280;8878;-33.370;-70.552;2023-03-20T06:07:46;91977.25;;;23.83;48.69
17521;BME280;8878;-33.370;-70.552;2023-03-20T06:10:16;91981.66;;;23.91;48.06
17521;BME280;8878;-33.370;-70.552;2023-03-20T06:12:48;91976.59;;;23.70;49.05
17521;BME280;8878;-33.370;-70.552;2023-03-20T06:15:18;91978.25;;;23.59;48.91
17521;BME280;8878;-33.370;-70.552;2023-03-20T06:17:47;91978.69;;;23.61;49.02
17521;BME280;8878;-33.370;-70.552;2023-03-20T06:20:18;91976.59;;;23.70;49.26
17521;BME280;8878;-33.370;-70.552;2023-03-20T06:22:47;91978.84;;;23.68;49.29
17521;BME280;8878;-33.370;-70.552;2023-03-20T06:25:17;91960.69;;;23.65;48.66
17521;BME280;8878;-33.370;-70.552;2023-03-20T06:27:48;91958.53;;;23.55;48.67
17521;BME280;8878;-33.370;-70.552;2023-03-20T06:30:17;91961.31;;;23.42;49.06
17521;BME280;8878;-33.370;-70.552;2023-03-20T06:32:47;91959.28;;;23.39;49.27
17521;BME280;8878;-33.370;-70.552;2023-03-20T06:35:16;91959.81;;;23.45;49.04
17521;BME280;8878;-33.370;-70.552;2023-03-20T06:37:45;91964.44;;;23.45;49.57
17521;BME280;8878;-33.370;-70.552;2023-03-20T06:40:15;91959.81;;;23.45;49.46
17521;BME280;8878;-33.370;-70.552;2023-03-20T06:42:44;91958.09;;;23.53;49.50
17521;BME280;8878;-33.370;-70.552;2023-03-20T06:45:15;91949.25;;;23.36;48.97
17521;BME280;8878;-33.370;-70.552;2023-03-20T06:47:45;91960.00;;;23.52;48.85
17521;BME280;8878;-33.370;-70.552;2023-03-20T06:50:15;91953.44;;;23.50;48.73
17521;BME280;8878;-33.370;-70.552;2023-03-20T06:52:44;91951.69;;;23.57;49.26
17521;BME280;8878;-33.370;-70.552;2023-03-20T06:55:14;91942.53;;;23.46;49.46
17521;BME280;8878;-33.370;-70.552;2023-03-20T06:57:44;91939.59;;;23.35;49.55
17521;BME280;8878;-33.370;-70.552;2023-03-20T07:00:16;91940.72;;;23.34;50.28
17521;BME280;8878;-33.370;-70.552;2023-03-20T07:02:46;91927.09;;;23.27;50.24
17521;BME280;8878;-33.370;-70.552;2023-03-20T07:05:16;91931.59;;;23.23;50.03
17521;BME280;8878;-33.370;-70.552;2023-03-20T07:07:46;91928.91;;;23.23;50.09
17521;BME280;8878;-33.370;-70.552;2023-03-20T07:10:15;91934.66;;;23.22;49.88
17521;BME280;8878;-33.370;-70.552;2023-03-20T07:15:34;91922.41;;;23.24;50.09
17521;BME280;8878;-33.370;-70.552;2023-03-20T07:18:03;91928.22;;;23.26;50.10
17521;BME280;8878;-33.370;-70.552;2023-03-20T07:20:32;91923.63;;;23.27;49.59
17521;BME280;8878;-33.370;-70.552;2023-03-20T07:23:02;91916.78;;;23.14;50.19
17521;BME280;8878;-33.370;-70.552;2023-03-20T07:25:32;91916.00;;;23.13;50.02
17521;BME280;8878;-33.370;-70.552;2023-03-20T07:28:02;91913.47;;;23.20;50.40
17521;BME280;8878;-33.370;-70.552;2023-03-20T07:30:33;91908.53;;;23.22;50.16
17521;BME280;8878;-33.370;-70.552;2023-03-20T07:33:03;91906.78;;;23.30;50.32
17521;BME280;8878;-33.370;-70.552;2023-03-20T07:35:32;91910.69;;;23.32;50.11
17521;BME280;8878;-33.370;-70.552;2023-03-20T07:38:03;91901.81;;;23.32;49.44
17521;BME280;8878;-33.370;-70.552;2023-03-20T07:40:32;91899.22;;;23.35;49.43
17521;BME280;8878;-33.370;-70.552;2023-03-20T07:43:02;91908.44;;;23.34;49.70
17521;BME280;8878;-33.370;-70.552;2023-03-20T07:45:35;91900.81;;;23.05;49.53
17521;BME280;8878;-33.370;-70.552;2023-03-20T07:48:04;91898.13;;;23.05;49.69
17521;BME280;8878;-33.370;-70.552;2023-03-20T07:50:34;91894.47;;;23.13;49.79
17521;BME280;8878;-33.370;-70.552;2023-03-20T07:53:03;91893.91;;;23.23;50.04
17521;BME280;8878;-33.370;-70.552;2023-03-20T07:55:33;91906.19;;;23.21;50.13
17521;BME280;8878;-33.370;-70.552;2023-03-20T07:58:03;91895.75;;;23.19;49.91
17521;BME280;8878;-33.370;-70.552;2023-03-20T08:00:36;91898.72;;;23.14;49.49
17521;BME280;8878;-33.370;-70.552;2023-03-20T08:03:05;91898.00;;;23.17;49.65
17521;BME280;8878;-33.370;-70.552;2023-03-20T08:05:34;91883.72;;;23.13;49.94
17521;BME280;8878;-33.370;-70.552;2023-03-20T08:08:04;91887.88;;;23.11;49.38
17521;BME280;8878;-33.370;-70.552;2023-03-20T08:10:34;91883.72;;;23.13;49.79
17521;BME280;8878;-33.370;-70.552;2023-03-20T08:13:04;91882.94;;;23.13;49.86
17521;BME280;8878;-33.370;-70.552;2023-03-20T08:15:35;91889.09;;;23.13;49.99
17521;BME280;8878;-33.370;-70.552;2023-03-20T08:18:04;91882.66;;;23.02;50.16
17521;BME280;8878;-33.370;-70.552;2023-03-20T08:20:34;91874.59;;;23.02;49.62
17521;BME280;8878;-33.370;-70.552;2023-03-20T08:23:03;91885.00;;;23.03;49.76
17521;BME280;8878;-33.370;-70.552;2023-03-20T08:25:33;91874.06;;;22.96;49.81
17521;BME280;8878;-33.370;-70.552;2023-03-20T08:28:03;91873.28;;;22.96;49.89
17521;BME280;8878;-33.370;-70.552;2023-03-20T08:30:32;91883.38;;;22.99;49.73
17521;BME280;8878;-33.370;-70.552;2023-03-20T08:33:03;91885.56;;;22.93;49.79
17521;BME280;8878;-33.370;-70.552;2023-03-20T08:35:33;91881.72;;;22.79;50.29
17521;BME280;8878;-33.370;-70.552;2023-03-20T08:38:02;91888.13;;;22.74;49.73
17521;BME280;8878;-33.370;-70.552;2023-03-20T08:40:32;91875.69;;;22.70;49.41
17521;BME280;8878;-33.370;-70.552;2023-03-20T08:43:01;91879.84;;;22.67;50.62
17521;BME280;8878;-33.370;-70.552;2023-03-20T08:45:31;91876.69;;;22.77;49.79
17521;BME280;8878;-33.370;-70.552;2023-03-20T08:48:02;91870.53;;;22.77;49.64
17521;BME280;8878;-33.370;-70.552;2023-03-20T08:50:32;91874.97;;;22.85;49.87
17521;BME280;8878;-33.370;-70.552;2023-03-20T08:53:01;91878.44;;;22.85;50.86
17521;BME280;8878;-33.370;-70.552;2023-03-20T08:55:31;91875.28;;;22.83;51.22
17521;BME280;8878;-33.370;-70.552;2023-03-20T08:58:00;91875.81;;;22.89;50.59
17521;BME280;8878;-33.370;-70.552;2023-03-20T09:00:30;91882.25;;;22.84;50.43
17521;BME280;8878;-33.370;-70.552;2023-03-20T09:02:59;91882.31;;;22.88;50.41
17521;BME280;8878;-33.370;-70.552;2023-03-20T09:05:31;91879.38;;;22.77;50.18
17521;BME280;8878;-33.370;-70.552;2023-03-20T09:08:00;91883.09;;;22.88;49.71
17521;BME280;8878;-33.370;-70.552;2023-03-20T09:10:29;91889.53;;;22.84;49.94
17521;BME280;8878;-33.370;-70.552;2023-03-20T09:13:01;91890.16;;;22.93;50.01
17521;BME280;8878;-33.370;-70.552;2023-03-20T09:15:30;91881.56;;;22.87;50.21
17521;BME280;8878;-33.370;-70.552;2023-03-20T09:17:59;91883.47;;;22.87;50.79
17521;BME280;8878;-33.370;-70.552;2023-03-20T09:20:30;91881.56;;;22.59;50.19
17521;BME280;8878;-33.370;-70.552;2023-03-20T09:23:00;91883.91;;;22.73;49.58
17521;BME280;8878;-33.370;-70.552;2023-03-20T09:25:30;91889.34;;;22.77;50.20
17521;BME280;8878;-33.370;-70.552;2023-03-20T09:28:00;91885.97;;;22.80;49.94
17521;BME280;8878;-33.370;-70.552;2023-03-20T09:30:29;91878.25;;;22.78;49.80
17521;BME280;8878;-33.370;-70.552;2023-03-20T09:32:58;91879.72;;;22.76;50.64
17521;BME280;8878;-33.370;-70.552;2023-03-20T09:35:29;91891.06;;;22.69;51.03
17521;BME280;8878;-33.370;-70.552;2023-03-20T09:37:59;91888.69;;;22.80;50.28
17521;BME280;8878;-33.370;-70.552;2023-03-20T09:40:30;91888.81;;;22.71;50.32
17521;BME280;8878;-33.370;-70.552;2023-03-20T09:43:12;91884.44;;;22.66;50.41
17521;BME280;8878;-33.370;-70.552;2023-03-20T09:45:50;91891.59;;;22.75;50.33
17521;BME280;8878;-33.370;-70.552;2023-03-20T09:48:28;91893.59;;;22.78;49.80
17521;BME280;8878;-33.370;-70.552;2023-03-20T09:51:09;91882.47;;;22.63;49.38
17521;BME280;8878;-33.370;-70.552;2023-03-20T09:53:46;91894.50;;;22.54;49.59
17521;BME280;8878;-33.370;-70.552;2023-03-20T09:56:20;91893.72;;;22.53;49.89
17521;BME280;8878;-33.370;-70.552;2023-03-20T09:58:54;91889.47;;;22.52;49.33
17521;BME280;8878;-33.370;-70.552;2023-03-20T10:01:26;91891.03;;;22.53;49.71
17521;BME280;8878;-33.370;-70.552;2023-03-20T10:04:00;91893.34;;;22.39;49.59
17521;BME280;8878;-33.370;-70.552;2023-03-20T10:06:35;91893.91;;;22.60;49.87
17521;BME280;8878;-33.370;-70.552;2023-03-20T10:09:12;91891.66;;;22.62;49.39
17521;BME280;8878;-33.370;-70.552;2023-03-20T10:12:15;91885.91;;;22.48;49.45
17521;BME280;8878;-33.370;-70.552;2023-03-20T10:14:57;91896.59;;;22.45;49.73
17521;BME280;8878;-33.370;-70.552;2023-03-20T10:17:43;91894.91;;;22.40;49.63
17521;BME280;8878;-33.370;-70.552;2023-03-20T10:20:24;91898.34;;;22.25;49.99
17521;BME280;8878;-33.370;-70.552;2023-03-20T10:22:58;91909.19;;;22.29;50.05
17521;BME280;8878;-33.370;-70.552;2023-03-20T10:25:33;91915.03;;;22.31;51.07
17521;BME280;8878;-33.370;-70.552;2023-03-20T10:28:05;91907.91;;;22.38;50.25
17521;BME280;8878;-33.370;-70.552;2023-03-20T10:30:51;91923.28;;;22.38;50.34
17521;BME280;8878;-33.370;-70.552;2023-03-20T10:33:33;91927.31;;;22.32;50.81
17521;BME280;8878;-33.370;-70.552;2023-03-20T10:36:19;91932.78;;;22.35;50.19
17521;BME280;8878;-33.370;-70.552;2023-03-20T10:38:59;91930.75;;;22.44;50.07
17521;BME280;8878;-33.370;-70.552;2023-03-20T10:41:34;91925.44;;;22.48;49.16
17521;BME280;8878;-33.370;-70.552;2023-03-20T10:44:05;91925.19;;;22.53;49.66
17521;BME280;8878;-33.370;-70.552;2023-03-20T10:46:41;91933.09;;;22.61;49.38
17521;BME280;8878;-33.370;-70.552;2023-03-20T10:49:16;91930.94;;;22.51;50.53
17521;BME280;8878;-33.370;-70.552;2023-03-20T10:51:48;91938.22;;;22.51;50.67
17521;BME280;8878;-33.370;-70.552;2023-03-20T10:54:25;91935.16;;;22.52;50.21
17521;BME280;8878;-33.370;-70.552;2023-03-20T10:56:57;91943.84;;;22.61;50.38
17521;BME280;8878;-33.370;-70.552;2023-03-20T10:59:31;91945.25;;;22.55;50.35
17521;BME280;8878;-33.370;-70.552;2023-03-20T11:02:06;91944.06;;;22.69;50.41
17521;BME280;8878;-33.370;-70.552;2023-03-20T11:04:37;91959.16;;;22.45;49.98
17521;BME280;8878;-33.370;-70.552;2023-03-20T11:07:13;91956.78;;;22.56;50.00
17521;BME280;8878;-33.370;-70.552;2023-03-20T11:10:07;91957.56;;;22.56;50.21
17521;BME280;8878;-33.370;-70.552;2023-03-20T11:12:38;91968.75;;;22.58;49.94
17521;BME280;8878;-33.370;-70.552;2023-03-20T11:15:24;91977.09;;;22.13;50.52
17521;BME280;8878;-33.370;-70.552;2023-03-20T11:17:57;91978.03;;;22.33;49.96
17521;BME280;8878;-33.370;-70.552;2023-03-20T11:20:32;91981.81;;;22.44;49.79
17521;BME280;8878;-33.370;-70.552;2023-03-20T11:23:04;91984.59;;;22.76;49.08
17521;BME280;8878;-33.370;-70.552;2023-03-20T11:25:37;91984.19;;;22.61;49.38
17521;BME280;8878;-33.370;-70.552;2023-03-20T11:28:31;91988.13;;;22.64;49.28
17521;BME280;8878;-33.370;-70.552;2023-03-20T11:31:03;91988.13;;;22.64;49.73
17521;BME280;8878;-33.370;-70.552;2023-03-20T11:33:38;91997.00;;;22.52;50.00
17521;BME280;8878;-33.370;-70.552;2023-03-20T11:36:19;91999.63;;;22.77;49.32
17521;BME280;8878;-33.370;-70.552;2023-03-20T11:38:50;92001.47;;;23.04;48.81
17521;BME280;8878;-33.370;-70.552;2023-03-20T11:41:23;92001.25;;;23.25;50.48
17521;BME280;8878;-33.370;-70.552;2023-03-20T11:43:54;92004.28;;;23.39;50.28
17521;BME280;8878;-33.370;-70.552;2023-03-20T11:46:24;92012.97;;;23.32;50.24
17521;BME280;8878;-33.370;-70.552;2023-03-20T11:49:15;92019.13;;;23.33;50.47
17521;BME280;8878;-33.370;-70.552;2023-03-20T11:51:47;92029.44;;;23.31;49.62
17521;BME280;8878;-33.370;-70.552;2023-03-20T11:54:19;92023.78;;;23.48;48.67
17521;BME280;8878;-33.370;-70.552;2023-03-20T11:56:56;92030.19;;;23.43;47.46
17521;BME280;8878;-33.370;-70.552;2023-03-20T11:59:29;92037.66;;;23.81;47.94
17521;BME280;8878;-33.370;-70.552;2023-03-20T12:02:01;92039.47;;;23.93;48.87
17521;BME280;8878;-33.370;-70.552;2023-03-20T12:04:32;92039.94;;;24.14;47.83
17521;BME280;8878;-33.370;-70.552;2023-03-20T12:07:08;92039.06;;;24.10;47.65
17521;BME280;8878;-33.370;-70.552;2023-03-20T12:09:41;92042.75;;;24.02;47.80
17521;BME280;8878;-33.370;-70.552;2023-03-20T12:12:23;92049.44;;;24.08;46.27
17521;BME280;8878;-33.370;-70.552;2023-03-20T12:15:03;92054.91;;;24.28;46.73
17521;BME280;8878;-33.370;-70.552;2023-03-20T12:17:41;92053.25;;;24.23;45.68
17521;BME280;8878;-33.370;-70.552;2023-03-20T12:20:28;92062.38;;;24.34;45.01
17521;BME280;8878;-33.370;-70.552;2023-03-20T12:23:11;92065.59;;;24.78;44.69
17521;BME280;8878;-33.370;-70.552;2023-03-20T12:25:47;92062.88;;;24.59;44.19
17521;BME280;8878;-33.370;-70.552;2023-03-20T12:28:24;92064.69;;;24.71;44.12
17521;BME280;8878;-33.370;-70.552;2023-03-20T12:31:00;92067.06;;;24.91;44.18
17521;BME280;8878;-33.370;-70.552;2023-03-20T12:33:41;92069.44;;;24.96;44.00
17521;BME280;8878;-33.370;-70.552;2023-03-20T12:36:16;92071.59;;;25.07;43.65
17521;BME280;8878;-33.370;-70.552;2023-03-20T12:38:46;92075.25;;;24.79;43.86
17521;BME280;8878;-33.370;-70.552;2023-03-20T12:41:21;92070.28;;;24.81;43.71
17521;BME280;8878;-33.370;-70.552;2023-03-20T12:44:20;92076.06;;;24.99;43.50
17521;BME280;8878;-33.370;-70.552;2023-03-20T12:46:59;92070.59;;;25.15;43.03
17521;BME280;8878;-33.370;-70.552;2023-03-20T12:49:40;92071.59;;;25.29;42.64
17521;BME280;8878;-33.370;-70.552;2023-03-20T12:52:21;92074.56;;;25.44;42.64
17521;BME280;8878;-33.370;-70.552;2023-03-20T12:55:15;92075.78;;;25.46;41.92
17521;BME280;8878;-33.370;-70.552;2023-03-20T12:58:00;92075.63;;;25.58;41.72
17521;BME280;8878;-33.370;-70.552;2023-03-20T13:00:39;92069.34;;;25.73;41.28
17521;BME280;8878;-33.370;-70.552;2023-03-20T13:03:29;92066.38;;;25.59;41.39
17521;BME280;8878;-33.370;-70.552;2023-03-20T13:06:08;92072.38;;;25.72;41.59
17521;BME280;8878;-33.370;-70.552;2023-03-20T13:09:00;92067.88;;;25.80;42.18
17521;BME280;8878;-33.370;-70.552;2023-03-20T13:11:39;92069.06;;;26.05;41.58
17521;BME280;8878;-33.370;-70.552;2023-03-20T13:14:14;92065.47;;;25.97;41.85
17521;BME280;8878;-33.370;-70.552;2023-03-20T13:16:51;92061.44;;;26.10;41.13
17521;BME280;8878;-33.370;-70.552;2023-03-20T13:19:29;92067.34;;;25.93;41.43